sensor_id;sensor_type;location;lat;lon;timestamp;pressure;altitude;pressure_sealevel;temperature;humidity
55277;BME280;41136;51.478;-2.610;2023-04-29T00:01:56;100937.78;;;13.36;100.00
55277;BME280;41136;51.478;-2.610;2023-04-29T00:04:21;100937.51;;;13.79;100.00
55277;BME280;41136;51.478;-2.610;2023-04-29T00:06:46;100939.87;;;13.49;100.00
55277;BME280;41136;51.478;-2.610;2023-04-29T00:09:12;100943.47;;;12.90;100.00
55277;BME280;41136;51.478;-2.610;2023-04-29T00:11:37;100948.33;;;13.12;100.00
55277;BME280;41136;51.478;-2.610;2023-04-29T00:14:02;100954.19;;;13.69;100.00
55277;BME280;41136;51.478;-2.610;2023-04-29T00:16:28;100955.94;;;14.16;100.00
55277;BME280;41136;51.478;-2.610;2023-04-29T00:18:53;100958.41;;;14.06;100.00
55277;BME280;41136;51.478;-2.610;2023-04-29T00:21:18;100959.09;;;14.30;100.00
55277;BME280;41136;51.478;-2.610;2023-04-29T00:23:44;100959.77;;;13.89;100.00
55277;BME280;41136;51.478;-2.610;2023-04-29T00:26:09;100958.59;;;14.68;100.00
55277;BME280;41136;51.478;-2.610;2023-04-29T00:28:35;100961.96;;;15.01;100.00
55277;BME280;41136;51.478;-2.610;2023-04-29T00:31:00;100963.10;;;15.12;100.00
55277;BME280;41136;51.478;-2.610;2023-04-29T00:33:25;100964.76;;;14.25;100.00
55277;BME280;41136;51.478;-2.610;2023-04-29T00:35:50;100967.75;;;14.17;100.00
55277;BME280;41136;51.478;-2.610;2023-04-29T00:38:15;100966.40;;;14.52;100.00
55277;BME280;41136;51.478;-2.610;2023-04-29T00:40:40;100965.07;;;14.43;100.00
55277;BME280;41136;51.478;-2.610;2023-04-29T00:43:06;100967.20;;;15.04;100.00
55277;BME280;41136;51.478;-2.610;2023-04-29T00:45:31;100967.99;;;15.09;100.00
55277;BME280;41136;51.478;-2.610;2023-04-29T00:47:56;100964.25;;;14.77;100.00
55277;BME280;41136;51.478;-2.610;2023-04-29T00:50:21;100965.74;;;14.40;100.00
55277;BME280;41136;51.478;-2.610;2023-04-29T00:52:46;100964.68;;;13.96;100.00
55277;BME280;41136;51.478;-2.610;2023-04-29T00:55:12;100961.19;;;13.72;100.00
55277;BME280;41136;51.478;-2.610;2023-04-29T00:57:37;100961.04;;;14.02;100.00
55277;BME280;41136;51.478;-2.610;2023-04-29T01:00:03;100957.97;;;13.49;100.00
55277;BME280;41136;51.478;-2.610;2023-04-29T01:02:27;100956.69;;;13.65;100.00
55277;BME280;41136;51.478;-2.610;2023-04-29T01:04:52;100955.81;;;13.46;100.00
55277;BME280;41136;51.478;-2.610;2023-04-29T01:07:23;100956.48;;;13.72;100.00
55277;BME280;41136;51.478;-2.610;2023-04-29T01:11:08;100953.99;;;13.96;100.00
55277;BME280;41136;51.478;-2.610;2023-04-29T01:13:33;100954.42;;;13.94;100.00
55277;BME280;41136;51.478;-2.610;2023-04-29T01:16:00;100955.02;;;13.93;100.00
55277;BME280;41136;51.478;-2.610;2023-04-29T01:18:25;100955.34;;;14.22;100.00
55277;BME280;41136;51.478;-2.610;2023-04-29T01:20:46;100953.36;;;14.86;100.00
55277;BME280;41136;51.478;-2.610;2023-04-29T01:23:11;100953.94;;;14.51;100.00
55277;BME280;41136;51.478;-2.610;2023-04-29T01:25:37;100955.40;;;14.33;100.00
55277;BME280;41136;51.478;-2.610;2023-04-29T01:28:11;100957.86;;;14.25;100.00
55277;BME280;41136;51.478;-2.610;2023-04-29T01:30:34;100958.32;;;14.28;100.00
55277;BME280;41136;51.478;-2.610;2023-04-29T01:32:56;100959.92;;;14.30;100.00
55277;BME280;41136;51.478;-2.610;2023-04-29T01:35:25;100961.95;;;14.59;100.00
55277;BME280;41136;51.478;-2.610;2023-04-29T01:37:52;100959.21;;;14.85;100.00
55277;BME280;41136;51.478;-2.610;2023-04-29T01:40:14;100961.63;;;13.93;100.00
55277;BME280;41136;51.478;-2.610;2023-04-29T01:42:38;100962.82;;;13.93;100.00
55277;BME280;41136;51.478;-2.610;2023-04-29T01:45:00;100963.40;;;14.02;100.00
55277;BME280;41136;51.478;-2.610;2023-04-29T01:47:23;100968.11;;;14.45;100.00
55277;BME280;41136;51.478;-2.610;2023-04-29T01:49:49;100964.45;;;14.09;100.00
55277;BME280;41136;51.478;-2.610;2023-04-29T01:52:14;100961.08;;;13.61;100.00
55277;BME280;41136;51.478;-2.610;2023-04-29T01:54:39;100959.41;;;13.25;100.00
55277;BME280;41136;51.478;-2.610;2023-04-29T01:57:05;100960.06;;;13.47;100.00
55277;BME280;41136;51.478;-2.610;2023-04-29T01:59:31;100964.53;;;14.02;100.00
55277;BME280;41136;51.478;-2.610;2023-04-29T02:01:56;100965.16;;;14.53;100.00
55277;BME280;41136;51.478;-2.610;2023-04-29T02:04:22;100966.89;;;14.05;100.00
55277;BME280;41136;51.478;-2.610;2023-04-29T02:06:47;100965.55;;;13.95;100.00
55277;BME280;41136;51.478;-2.610;2023-04-29T02:09:12;100970.68;;;14.20;100.00
55277;BME280;41136;51.478;-2.610;2023-04-29T02:11:38;100968.21;;;14.36;100.00
55277;BME280;41136;51.478;-2.610;2023-04-29T02:14:03;100969.80;;;13.95;100.00
55277;BME280;41136;51.478;-2.610;2023-04-29T02:16:28;100973.23;;;14.20;100.00
55277;BME280;41136;51.478;-2.610;2023-04-29T02:18:54;100972.85;;;14.01;100.00
55277;BME280;41136;51.478;-2.610;2023-04-29T02:21:19;100974.13;;;13.94;100.00
55277;BME280;41136;51.478;-2.610;2023-04-29T02:23:45;100970.74;;;13.97;100.00
55277;BME280;41136;51.478;-2.610;2023-04-29T02:26:10;100972.44;;;13.95;100.00
55277;BME280;41136;51.478;-2.610;2023-04-29T02:28:35;100974.33;;;14.07;100.00
55277;BME280;41136;51.478;-2.610;2023-04-29T02:31:01;100973.81;;;14.00;100.00
55277;BME280;41136;51.478;-2.610;2023-04-29T02:33:26;100970.73;;;13.24;100.00
55277;BME280;41136;51.478;-2.610;2023-04-29T02:35:51;100974.61;;;13.41;100.00
55277;BME280;41136;51.478;-2.610;2023-04-29T02:38:16;100975.90;;;13.60;100.00
55277;BME280;41136;51.478;-2.610;2023-04-29T02:40:41;100974.08;;;13.92;100.00
55277;BME280;41136;51.478;-2.610;2023-04-29T02:43:07;100974.38;;;13.13;100.00
55277;BME280;41136;51.478;-2.610;2023-04-29T02:45:32;100974.39;;;13.44;100.00
55277;BME280;41136;51.478;-2.610;2023-04-29T02:47:58;100972.29;;;13.55;100.00
55277;BME280;41136;51.478;-2.610;2023-04-29T02:50:23;100973.73;;;13.55;100.00
55277;BME280;41136;51.478;-2.610;2023-04-29T02:52:48;100975.92;;;13.71;100.00
55277;BME280;41136;51.478;-2.610;2023-04-29T02:55:13;100975.40;;;14.04;100.00
55277;BME280;41136;51.478;-2.610;2023-04-29T02:57:39;100972.45;;;13.30;100.00
55277;BME280;41136;51.478;-2.610;2023-04-29T03:00:05;100983.04;;;14.27;100.00
55277;BME280;41136;51.478;-2.610;2023-04-29T03:02:30;100986.29;;;14.13;100.00
55277;BME280;41136;51.478;-2.610;2023-04-29T03:04:55;100993.78;;;13.71;100.00
55277;BME280;41136;51.478;-2.610;2023-04-29T03:07:21;100991.71;;;13.73;100.00
55277;BME280;41136;51.478;-2.610;2023-04-29T03:09:47;100991.14;;;13.35;100.00
55277;BME280;41136;51.478;-2.610;2023-04-29T03:12:12;100992.99;;;13.47;100.00
55277;BME280;41136;51.478;-2.610;2023-04-29T03:14:38;100993.98;;;13.29;100.00
55277;BME280;41136;51.478;-2.610;2023-04-29T03:17:04;100995.64;;;13.10;100.00
55277;BME280;41136;51.478;-2.610;2023-04-29T03:19:29;100993.44;;;13.79;100.00
55277;BME280;41136;51.478;-2.610;2023-04-29T03:21:54;100991.45;;;13.11;100.00
55277;BME280;41136;51.478;-2.610;2023-04-29T03:24:20;100989.73;;;13.16;100.00
55277;BME280;41136;51.478;-2.610;2023-04-29T03:26:45;100988.95;;;13.32;100.00
55277;BME280;41136;51.478;-2.610;2023-04-29T03:29:11;100991.73;;;13.77;100.00
55277;BME280;41136;51.478;-2.610;2023-04-29T03:31:36;100992.81;;;13.37;100.00
55277;BME280;41136;51.478;-2.610;2023-04-29T03:34:02;100993.41;;;13.23;100.00
55277;BME280;41136;51.478;-2.610;2023-04-29T03:36:27;100995.12;;;13.38;100.00
55277;BME280;41136;51.478;-2.610;2023-04-29T03:38:52;100996.63;;;13.35;100.00
55277;BME280;41136;51.478;-2.610;2023-04-29T03:41:17;101001.90;;;13.18;100.00
55277;BME280;41136;51.478;-2.610;2023-04-29T03:43:43;101001.60;;;12.86;100.00
55277;BME280;41136;51.478;-2.610;2023-04-29T03:46:08;101000.99;;;12.98;100.00
55277;BME280;41136;51.478;-2.610;2023-04-29T03:48:33;101001.46;;;13.30;100.00
55277;BME280;41136;51.478;-2.610;2023-04-29T03:50:59;101000.52;;;12.97;100.00
55277;BME280;41136;51.478;-2.610;2023-04-29T03:53:24;100998.77;;;12.59;100.00
55277;BME280;41136;51.478;-2.610;2023-04-29T03:55:50;101000.47;;;13.26;100.00
55277;BME280;41136;51.478;-2.610;2023-04-29T03:58:15;101002.45;;;13.19;100.00
55277;BME280;41136;51.478;-2.610;2023-04-29T04:00:41;101005.11;;;13.00;100.00
55277;BME280;41136;51.478;-2.610;2023-04-29T04:03:06;101002.23;;;12.99;100.00
55277;BME280;41136;51.478;-2.610;2023-04-29T04:05:32;101003.58;;;13.34;100.00
55277;BME280;41136;51.478;-2.610;2023-04-29T04:07:57;101006.66;;;13.08;100.00
55277;BME280;41136;51.478;-2.610;2023-04-29T04:10:23;101006.29;;;13.19;100.00
55277;BME280;41136;51.478;-2.610;2023-04-29T04:18:26;101013.74;;;13.35;100.00
55277;BME280;41136;51.478;-2.610;2023-04-29T04:20:51;101019.16;;;13.28;100.00
55277;BME280;41136;51.478;-2.610;2023-04-29T04:23:16;101025.86;;;12.98;100.00
55277;BME280;41136;51.478;-2.610;2023-04-29T04:25:45;101027.56;;;13.47;100.00
55277;BME280;41136;51.478;-2.610;2023-04-29T04:28:07;101029.89;;;13.60;100.00
55277;BME280;41136;51.478;-2.610;2023-04-29T04:30:34;101035.51;;;13.73;100.00
55277;BME280;41136;51.478;-2.610;2023-04-29T04:32:57;101037.25;;;13.67;100.00
55277;BME280;41136;51.478;-2.610;2023-04-29T04:35:23;101040.90;;;13.50;100.00
55277;BME280;41136;51.478;-2.610;2023-04-29T04:37:48;101042.22;;;13.33;100.00
55277;BME280;41136;51.478;-2.610;2023-04-29T04:40:13;101041.72;;;13.17;100.00
55277;BME280;41136;51.478;-2.610;2023-04-29T04:42:38;101043.00;;;13.33;100.00
55277;BME280;41136;51.478;-2.610;2023-04-29T04:45:04;101047.58;;;13.07;100.00
55277;BME280;41136;51.478;-2.610;2023-04-29T04:47:29;101049.93;;;13.17;100.00
55277;BME280;41136;51.478;-2.610;2023-04-29T04:49:54;101050.40;;;12.99;100.00
55277;BME280;41136;51.478;-2.610;2023-04-29T04:52:20;101055.42;;;12.50;100.00
55277;BME280;41136;51.478;-2.610;2023-04-29T04:54:46;101060.83;;;12.51;100.00
55277;BME280;41136;51.478;-2.610;2023-04-29T04:57:11;101060.66;;;13.38;100.00
55277;BME280;41136;51.478;-2.610;2023-04-29T04:59:36;101065.84;;;13.04;100.00
55277;BME280;41136;51.478;-2.610;2023-04-29T05:02:01;101062.63;;;12.90;100.00
55277;BME280;41136;51.478;-2.610;2023-04-29T05:04:26;101066.93;;;12.90;100.00
55277;BME280;41136;51.478;-2.610;2023-04-29T05:06:52;101071.22;;;13.36;100.00
55277;BME280;41136;51.478;-2.610;2023-04-29T05:09:17;101073.65;;;13.19;100.00
55277;BME280;41136;51.478;-2.610;2023-04-29T05:11:42;101075.15;;;13.44;100.00
55277;BME280;41136;51.478;-2.610;2023-04-29T05:14:07;101077.08;;;13.29;100.00
55277;BME280;41136;51.478;-2.610;2023-04-29T05:16:33;101083.05;;;13.55;100.00
55277;BME280;41136;51.478;-2.610;2023-04-29T05:18:58;101084.67;;;13.70;100.00
55277;BME280;41136;51.478;-2.610;2023-04-29T05:21:24;101090.29;;;13.76;100.00
55277;BME280;41136;51.478;-2.610;2023-04-29T05:23:49;101094.35;;;13.48;100.00
55277;BME280;41136;51.478;-2.610;2023-04-29T05:26:15;101098.45;;;13.73;100.00
55277;BME280;41136;51.478;-2.610;2023-04-29T05:28:40;101097.36;;;13.52;100.00
55277;BME280;41136;51.478;-2.610;2023-04-29T05:31:05;101100.76;;;13.85;100.00
55277;BME280;41136;51.478;-2.610;2023-04-29T05:33:30;101097.08;;;14.36;100.00
55277;BME280;41136;51.478;-2.610;2023-04-29T05:35:55;101097.34;;;13.92;100.00
55277;BME280;41136;51.478;-2.610;2023-04-29T05:38:21;101097.41;;;14.38;100.00
55277;BME280;41136;51.478;-2.610;2023-04-29T05:40:46;101099.48;;;14.12;100.00
55277;BME280;41136;51.478;-2.610;2023-04-29T05:43:12;101103.51;;;14.06;100.00
55277;BME280;41136;51.478;-2.610;2023-04-29T05:45:37;101104.21;;;14.36;100.00
55277;BME280;41136;51.478;-2.610;2023-04-29T05:48:02;101101.79;;;14.26;100.00
55277;BME280;41136;51.478;-2.610;2023-04-29T05:50:27;101105.19;;;14.08;100.00
55277;BME280;41136;51.478;-2.610;2023-04-29T05:52:53;101108.70;;;14.27;100.00
55277;BME280;41136;51.478;-2.610;2023-04-29T05:55:18;101107.22;;;14.47;100.00
55277;BME280;41136;51.478;-2.610;2023-04-29T05:57:43;101109.38;;;14.33;100.00
55277;BME280;41136;51.478;-2.610;2023-04-29T06:00:09;101110.70;;;14.19;100.00
55277;BME280;41136;51.478;-2.610;2023-04-29T06:02:33;101111.48;;;14.51;100.00
55277;BME280;41136;51.478;-2.610;2023-04-29T06:04:59;101111.92;;;14.39;100.00
55277;BME280;41136;51.478;-2.610;2023-04-29T06:07:25;101117.72;;;14.61;100.00
55277;BME280;41136;51.478;-2.610;2023-04-29T06:09:50;101114.43;;;13.99;100.00
55277;BME280;41136;51.478;-2.610;2023-04-29T06:12:15;101108.51;;;14.29;100.00
55277;BME280;41136;51.478;-2.610;2023-04-29T06:14:41;101110.53;;;14.47;100.00
55277;BME280;41136;51.478;-2.610;2023-04-29T06:17:06;101111.85;;;14.35;100.00
55277;BME280;41136;51.478;-2.610;2023-04-29T06:19:31;101115.43;;;14.13;100.00
55277;BME280;41136;51.478;-2.610;2023-04-29T06:21:56;101115.48;;;14.45;100.00
55277;BME280;41136;51.478;-2.610;2023-04-29T06:24:22;101113.44;;;14.07;100.00
55277;BME280;41136;51.478;-2.610;2023-04-29T06:26:47;101117.95;;;14.45;100.00
55277;BME280;41136;51.478;-2.610;2023-04-29T06:29:12;101121.07;;;14.20;100.00
55277;BME280;41136;51.478;-2.610;2023-04-29T06:31:37;101118.33;;;14.53;100.00
55277;BME280;41136;51.478;-2.610;2023-04-29T06:34:03;101118.67;;;14.36;100.00
55277;BME280;41136;51.478;-2.610;2023-04-29T06:36:28;101121.87;;;13.96;100.00
55277;BME280;41136;51.478;-2.610;2023-04-29T06:38:53;101128.62;;;14.49;100.00
55277;BME280;41136;51.478;-2.610;2023-04-29T06:41:19;101126.29;;;14.63;100.00
55277;BME280;41136;51.478;-2.610;2023-04-29T06:43:44;101129.94;;;14.46;100.00
55277;BME280;41136;51.478;-2.610;2023-04-29T06:46:10;101127.78;;;14.63;100.00
55277;BME280;41136;51.478;-2.610;2023-04-29T06:48:35;101135.98;;;14.18;100.00
55277;BME280;41136;51.478;-2.610;2023-04-29T06:51:00;101134.95;;;13.97;100.00
55277;BME280;41136;51.478;-2.610;2023-04-29T06:53:25;101144.48;;;14.35;100.00
55277;BME280;41136;51.478;-2.610;2023-04-29T06:55:51;101144.44;;;13.82;100.00
55277;BME280;41136;51.478;-2.610;2023-04-29T06:58:17;101149.13;;;14.03;100.00
55277;BME280;41136;51.478;-2.610;2023-04-29T07:00:44;101150.27;;;13.99;100.00
55277;BME280;41136;51.478;-2.610;2023-04-29T07:03:07;101154.13;;;13.75;100.00
55277;BME280;41136;51.478;-2.610;2023-04-29T07:05:33;101158.65;;;13.81;100.00
55277;BME280;41136;51.478;-2.610;2023-04-29T07:07:58;101161.35;;;14.11;100.00
55277;BME280;41136;51.478;-2.610;2023-04-29T07:10:24;101164.75;;;14.49;100.00
55277;BME280;41136;51.478;-2.610;2023-04-29T07:12:49;101163.90;;;14.45;100.00
55277;BME280;41136;51.478;-2.610;2023-04-29T07:15:15;101165.60;;;14.41;100.00
55277;BME280;41136;51.478;-2.610;2023-04-29T07:17:40;101167.20;;;14.79;100.00
55277;BME280;41136;51.478;-2.610;2023-04-29T07:20:06;101168.59;;;14.22;100.00
55277;BME280;41136;51.478;-2.610;2023-04-29T07:22:30;101169.70;;;14.16;100.00
55277;BME280;41136;51.478;-2.610;2023-04-29T07:24:56;101174.81;;;13.27;100.00
55277;BME280;41136;51.478;-2.610;2023-04-29T07:27:22;101168.80;;;14.55;100.00
55277;BME280;41136;51.478;-2.610;2023-04-29T07:29:47;101166.10;;;14.79;100.00
55277;BME280;41136;51.478;-2.610;2023-04-29T07:32:12;101169.58;;;14.19;100.00
55277;BME280;41136;51.478;-2.610;2023-04-29T07:34:38;101168.69;;;14.65;100.00
55277;BME280;41136;51.478;-2.610;2023-04-29T07:37:03;101168.85;;;14.50;100.00
55277;BME280;41136;51.478;-2.610;2023-04-29T07:39:28;101178.17;;;14.28;100.00
55277;BME280;41136;51.478;-2.610;2023-04-29T07:41:53;101180.33;;;14.81;100.00
55277;BME280;41136;51.478;-2.610;2023-04-29T07:44:18;101186.07;;;14.88;100.00
55277;BME280;41136;51.478;-2.610;2023-04-29T07:46:43;101189.42;;;14.48;100.00
55277;BME280;41136;51.478;-2.610;2023-04-29T07:49:09;101191.59;;;14.21;100.00
55277;BME280;41136;51.478;-2.610;2023-04-29T07:51:35;101191.61;;;14.31;100.00
55277;BME280;41136;51.478;-2.610;2023-04-29T07:54:01;101189.01;;;14.21;100.00
55277;BME280;41136;51.478;-2.610;2023-04-29T07:56:26;101189.71;;;14.56;100.00
55277;BME280;41136;51.478;-2.610;2023-04-29T07:58:51;101194.90;;;14.13;100.00
55277;BME280;41136;51.478;-2.610;2023-04-29T08:01:17;101198.33;;;14.23;100.00
55277;BME280;41136;51.478;-2.610;2023-04-29T08:03:42;101193.69;;;13.88;100.00
55277;BME280;41136;51.478;-2.610;2023-04-29T08:06:08;101193.77;;;14.14;100.00
55277;BME280;41136;51.478;-2.610;2023-04-29T08:08:33;101197.88;;;14.14;100.00
55277;BME280;41136;51.478;-2.610;2023-04-29T08:10:59;101199.16;;;13.98;100.00
55277;BME280;41136;51.478;-2.610;2023-04-29T08:13:25;101202.33;;;14.06;100.00
55277;BME280;41136;51.478;-2.610;2023-04-29T08:15:50;101202.17;;;14.04;100.00
55277;BME280;41136;51.478;-2.610;2023-04-29T08:18:15;101202.89;;;14.24;100.00
55277;BME280;41136;51.478;-2.610;2023-04-29T08:20:41;101205.18;;;14.05;100.00
55277;BME280;41136;51.478;-2.610;2023-04-29T08:23:07;101205.89;;;14.04;100.00
55277;BME280;41136;51.478;-2.610;2023-04-29T08:25:32;101204.09;;;14.41;100.00
55277;BME280;41136;51.478;-2.610;2023-04-29T08:27:57;101202.98;;;14.63;100.00
55277;BME280;41136;51.478;-2.610;2023-04-29T08:30:23;101204.88;;;14.47;100.00
55277;BME280;41136;51.478;-2.610;2023-04-29T08:32:48;101202.92;;;14.46;100.00
55277;BME280;41136;51.478;-2.610;2023-04-29T08:35:13;101200.52;;;14.46;100.00
55277;BME280;41136;51.478;-2.610;2023-04-29T08:37:38;101204.80;;;14.68;100.00
55277;BME280;41136;51.478;-2.610;2023-04-29T08:40:04;101208.69;;;14.71;100.00
55277;BME280;41136;51.478;-2.610;2023-04-29T08:42:32;101208.36;;;14.13;100.00
55277;BME280;41136;51.478;-2.610;2023-04-29T08:44:55;101208.66;;;14.90;100.00
55277;BME280;41136;51.478;-2.610;2023-04-29T08:47:20;101208.17;;;14.34;100.00
55277;BME280;41136;51.478;-2.610;2023-04-29T08:49:45;101212.45;;;14.60;100.00
55277;BME280;41136;51.478;-2.610;2023-04-29T08:52:10;101213.75;;;14.43;100.00
55277;BME280;41136;51.478;-2.610;2023-04-29T08:54:36;101221.20;;;14.28;100.00
55277;BME280;41136;51.478;-2.610;2023-04-29T08:57:01;101222.56;;;13.04;100.00
55277;BME280;41136;51.478;-2.610;2023-04-29T08:59:27;101224.93;;;13.99;100.00
55277;BME280;41136;51.478;-2.610;2023-04-29T09:01:53;101224.05;;;14.30;100.00
55277;BME280;41136;51.478;-2.610;2023-04-29T09:04:24;101230.24;;;14.74;100.00
55277;BME280;41136;51.478;-2.610;2023-04-29T09:06:43;101233.68;;;15.36;100.00
55277;BME280;41136;51.478;-2.610;2023-04-29T09:09:09;101243.10;;;13.06;100.00
55277;BME280;41136;51.478;-2.610;2023-04-29T09:11:34;101242.03;;;15.44;100.00
55277;BME280;41136;51.478;-2.610;2023-04-29T09:14:00;101243.04;;;14.06;100.00
55277;BME280;41136;51.478;-2.610;2023-04-29T09:16:24;101244.75;;;15.21;100.00
55277;BME280;41136;51.478;-2.610;2023-04-29T09:18:50;101244.96;;;15.44;100.00
55277;BME280;41136;51.478;-2.610;2023-04-29T09:21:17;101244.62;;;15.76;100.00
55277;BME280;41136;51.478;-2.610;2023-04-29T09:23:40;101243.85;;;15.80;100.00
55277;BME280;41136;51.478;-2.610;2023-04-29T09:26:06;101242.20;;;16.11;100.00
55277;BME280;41136;51.478;-2.610;2023-04-29T09:28:31;101243.65;;;14.72;100.00
55277;BME280;41136;51.478;-2.610;2023-04-29T09:30:56;101247.90;;;14.92;100.00
55277;BME280;41136;51.478;-2.610;2023-04-29T09:33:22;101246.87;;;15.92;100.00
55277;BME280;41136;51.478;-2.610;2023-04-29T09:35:47;101248.28;;;15.98;100.00
55277;BME280;41136;51.478;-2.610;2023-04-29T09:38:14;101249.04;;;15.79;100.00
55277;BME280;41136;51.478;-2.610;2023-04-29T09:40:38;101248.66;;;16.19;100.00
55277;BME280;41136;51.478;-2.610;2023-04-29T09:43:12;101248.79;;;16.20;100.00
55277;BME280;41136;51.478;-2.610;2023-04-29T09:45:33;101249.45;;;16.19;100.00
55277;BME280;41136;51.478;-2.610;2023-04-29T09:48:00;101248.84;;;16.21;100.00
55277;BME280;41136;51.478;-2.610;2023-04-29T09:50:20;101245.97;;;16.10;100.00
55277;BME280;41136;51.478;-2.610;2023-04-29T09:52:46;101245.81;;;15.94;100.00
55277;BME280;41136;51.478;-2.610;2023-04-29T09:55:11;101246.18;;;16.06;100.00
55277;BME280;41136;51.478;-2.610;2023-04-29T09:57:38;101246.00;;;16.18;100.00
55277;BME280;41136;51.478;-2.610;2023-04-29T10:00:02;101244.45;;;16.48;100.00
55277;BME280;41136;51.478;-2.610;2023-04-29T10:02:27;101243.07;;;15.90;100.00
55277;BME280;41136;51.478;-2.610;2023-04-29T10:04:53;101242.01;;;16.17;100.00
55277;BME280;41136;51.478;-2.610;2023-04-29T10:07:17;101239.22;;;15.30;100.00
55277;BME280;41136;51.478;-2.610;2023-04-29T10:09:44;101238.34;;;15.54;100.00
55277;BME280;41136;51.478;-2.610;2023-04-29T10:12:09;101236.96;;;16.70;100.00
55277;BME280;41136;51.478;-2.610;2023-04-29T10:14:41;101239.56;;;17.10;100.00
55277;BME280;41136;51.478;-2.610;2023-04-29T10:17:02;101241.66;;;16.99;100.00
55277;BME280;41136;51.478;-2.610;2023-04-29T10:19:27;101242.77;;;16.93;100.00
55277;BME280;41136;51.478;-2.610;2023-04-29T10:21:53;101244.03;;;16.84;100.00
55277;BME280;41136;51.478;-2.610;2023-04-29T10:24:17;101244.18;;;16.45;100.00
55277;BME280;41136;51.478;-2.610;2023-04-29T10:26:42;101245.39;;;16.91;100.00
55277;BME280;41136;51.478;-2.610;2023-04-29T10:29:07;101248.13;;;16.83;100.00
55277;BME280;41136;51.478;-2.610;2023-04-29T10:31:33;101251.38;;;17.31;100.00
55277;BME280;41136;51.478;-2.610;2023-04-29T10:33:58;101252.66;;;16.78;100.00
55277;BME280;41136;51.478;-2.610;2023-04-29T10:36:24;101248.67;;;17.04;100.00
55277;BME280;41136;51.478;-2.610;2023-04-29T10:38:51;101246.76;;;16.92;100.00
55277;BME280;41136;51.478;-2.610;2023-04-29T10:41:20;101243.08;;;17.06;100.00
55277;BME280;41136;51.478;-2.610;2023-04-29T10:43:40;101242.31;;;16.90;100.00
55277;BME280;41136;51.478;-2.610;2023-04-29T10:48:32;101242.16;;;17.25;100.00
55277;BME280;41136;51.478;-2.610;2023-04-29T10:51:00;101243.74;;;16.87;100.00
55277;BME280;41136;51.478;-2.610;2023-04-29T10:53:22;101244.17;;;17.35;100.00
55277;BME280;41136;51.478;-2.610;2023-04-29T10:55:52;101247.27;;;17.77;100.00
55277;BME280;41136;51.478;-2.610;2023-04-29T11:00:39;101249.96;;;17.31;100.00
55277;BME280;41136;51.478;-2.610;2023-04-29T11:03:05;101250.94;;;17.76;100.00
55277;BME280;41136;51.478;-2.610;2023-04-29T11:05:31;101249.80;;;17.75;100.00
55277;BME280;41136;51.478;-2.610;2023-04-29T11:10:21;101252.36;;;17.56;100.00
55277;BME280;41136;51.478;-2.610;2023-04-29T11:12:46;101253.97;;;17.78;100.00
55277;BME280;41136;51.478;-2.610;2023-04-29T11:15:17;101253.71;;;17.78;100.00
55277;BME280;41136;51.478;-2.610;2023-04-29T11:17:37;101254.35;;;18.01;100.00
55277;BME280;41136;51.478;-2.610;2023-04-29T11:20:04;101253.79;;;18.16;100.00
55277;BME280;41136;51.478;-2.610;2023-04-29T11:22:29;101251.74;;;17.14;100.00
55277;BME280;41136;51.478;-2.610;2023-04-29T11:24:55;101250.12;;;16.61;100.00
55277;BME280;41136;51.478;-2.610;2023-04-29T11:27:22;101252.39;;;18.01;100.00
55277;BME280;41136;51.478;-2.610;2023-04-29T11:29:46;101244.54;;;17.30;100.00
55277;BME280;41136;51.478;-2.610;2023-04-29T11:32:10;101241.07;;;17.43;100.00
55277;BME280;41136;51.478;-2.610;2023-04-29T11:34:36;101242.98;;;18.69;100.00
55277;BME280;41136;51.478;-2.610;2023-04-29T11:37:01;101243.15;;;18.60;97.88
55277;BME280;41136;51.478;-2.610;2023-04-29T11:39:26;101238.00;;;18.47;97.07
55277;BME280;41136;51.478;-2.610;2023-04-29T11:41:51;101236.23;;;18.86;95.88
55277;BME280;41136;51.478;-2.610;2023-04-29T11:44:21;101233.00;;;17.84;96.76
55277;BME280;41136;51.478;-2.610;2023-04-29T11:46:43;101234.52;;;18.77;97.02
55277;BME280;41136;51.478;-2.610;2023-04-29T11:49:08;101234.88;;;18.29;97.21
55277;BME280;41136;51.478;-2.610;2023-04-29T11:51:34;101231.27;;;18.61;96.86
55277;BME280;41136;51.478;-2.610;2023-04-29T11:54:00;101231.46;;;18.74;98.32
55277;BME280;41136;51.478;-2.610;2023-04-29T11:56:25;101227.17;;;18.53;96.39
55277;BME280;41136;51.478;-2.610;2023-04-29T11:58:53;101223.70;;;18.08;96.25
55277;BME280;41136;51.478;-2.610;2023-04-29T12:01:15;101224.20;;;18.82;95.34
55277;BME280;41136;51.478;-2.610;2023-04-29T12:03:43;101219.98;;;18.91;95.76
55277;BME280;41136;51.478;-2.610;2023-04-29T12:06:06;101217.55;;;19.06;94.43
55277;BME280;41136;51.478;-2.610;2023-04-29T12:08:31;101213.58;;;18.88;93.38
55277;BME280;41136;51.478;-2.610;2023-04-29T12:10:58;101210.09;;;19.30;95.69
55277;BME280;41136;51.478;-2.610;2023-04-29T12:13:24;101213.50;;;19.01;92.84
55277;BME280;41136;51.478;-2.610;2023-04-29T12:15:50;101207.27;;;19.41;94.09
55277;BME280;41136;51.478;-2.610;2023-04-29T12:18:14;101206.47;;;19.30;94.49
55277;BME280;41136;51.478;-2.610;2023-04-29T12:20:40;101205.13;;;19.02;90.78
55277;BME280;41136;51.478;-2.610;2023-04-29T12:23:10;101210.74;;;17.86;93.47
55277;BME280;41136;51.478;-2.610;2023-04-29T12:25:31;101211.41;;;19.05;94.17
55277;BME280;41136;51.478;-2.610;2023-04-29T12:27:58;101208.47;;;19.18;92.03
55277;BME280;41136;51.478;-2.610;2023-04-29T12:30:22;101210.20;;;18.03;93.44
55277;BME280;41136;51.478;-2.610;2023-04-29T12:32:47;101210.86;;;18.06;92.92
55277;BME280;41136;51.478;-2.610;2023-04-29T12:35:16;101210.31;;;18.53;94.23